createdAt,value
2022-11-16T00:01:08.588Z,55.93
2022-11-16T00:03:35.567Z,52.43
2022-11-16T00:06:04.528Z,48.77
2022-11-16T00:08:34.045Z,50.60
2022-11-16T00:11:08.922Z,48.90
2022-11-16T00:13:36.052Z,45.37
2022-11-16T00:16:02.941Z,53.20
2022-11-16T00:18:29.983Z,42.97
2022-11-16T00:20:56.999Z,49.23
2022-11-16T00:23:23.536Z,45.07
2022-11-16T00:25:50.616Z,43.43
2022-11-16T00:28:17.610Z,42.70
2022-11-16T00:30:44.139Z,46.93
2022-11-16T00:33:15.115Z,41.70
2022-11-16T00:35:41.658Z,37.67
2022-11-16T00:38:08.170Z,43.80
2022-11-16T00:40:34.738Z,41.70
2022-11-16T00:43:01.269Z,40.47
2022-11-16T00:45:27.884Z,41.20
2022-11-16T00:48:00.194Z,37.00
2022-11-16T00:50:27.098Z,37.17
2022-11-16T00:52:54.576Z,38.10
2022-11-16T00:55:21.137Z,44.07
2022-11-16T00:57:47.733Z,37.27
2022-11-16T01:00:14.848Z,35.03
2022-11-16T01:02:41.547Z,35.07
2022-11-16T01:05:09.678Z,36.03
2022-11-16T01:07:37.725Z,35.87
2022-11-16T01:10:07.345Z,34.60
2022-11-16T01:12:33.859Z,35.80
2022-11-16T01:15:00.500Z,35.03
2022-11-16T01:17:27.144Z,35.00
2022-11-16T01:19:54.038Z,39.03
2022-11-16T01:22:20.701Z,36.27
2022-11-16T01:24:47.341Z,36.53
2022-11-16T01:27:14.338Z,34.97
2022-11-16T01:29:40.983Z,35.90
2022-11-16T01:32:07.569Z,37.60
2022-11-16T01:34:34.296Z,37.90
2022-11-16T01:37:00.816Z,35.67
2022-11-16T01:39:27.550Z,35.63
2022-11-16T01:41:54.192Z,33.53
2022-11-16T01:44:32.896Z,32.73
2022-11-16T01:47:00.336Z,33.57
2022-11-16T01:49:28.748Z,31.80
2022-11-16T01:51:58.357Z,34.30
2022-11-16T01:54:24.999Z,33.27
2022-11-16T01:56:52.664Z,36.70
2022-11-16T01:59:19.299Z,40.73
2022-11-16T02:01:45.896Z,36.17
2022-11-16T02:04:13.453Z,28.20
2022-11-16T02:07:04.530Z,38.97
2022-11-16T02:09:55.940Z,34.87
2022-11-16T02:12:35.714Z,30.97
2022-11-16T02:15:15.624Z,30.90
2022-11-16T02:18:03.305Z,27.43
2022-11-16T02:20:59.506Z,29.10
2022-11-16T02:23:44.472Z,33.57
2022-11-16T02:26:34.435Z,27.93
2022-11-16T02:29:20.567Z,28.33
2022-11-16T02:32:00.384Z,33.93
2022-11-16T02:34:30.673Z,32.57
2022-11-16T02:36:58.818Z,33.13
2022-11-16T02:39:27.157Z,30.37
2022-11-16T02:41:55.354Z,30.43
2022-11-16T02:44:26.785Z,29.30
2022-11-16T02:46:57.224Z,30.80
2022-11-16T02:49:25.284Z,34.10
2022-11-16T02:51:53.587Z,30.67
2022-11-16T02:54:21.708Z,31.03
2022-11-16T02:57:04.476Z,29.17
2022-11-16T02:59:40.161Z,32.53
2022-11-16T03:02:19.991Z,30.90
2022-11-16T03:04:49.214Z,29.90
2022-11-16T03:07:18.975Z,30.30
2022-11-16T03:09:45.627Z,30.13
2022-11-16T03:12:16.837Z,28.77
2022-11-16T03:15:01.047Z,30.47
2022-11-16T03:17:30.051Z,33.80
2022-11-16T03:20:18.173Z,32.53
2022-11-16T03:22:46.900Z,35.57
2022-11-16T03:25:16.506Z,35.00
2022-11-16T03:27:52.201Z,37.73
2022-11-16T03:30:24.051Z,36.50
2022-11-16T03:33:03.352Z,36.13
2022-11-16T03:35:34.816Z,37.57
2022-11-16T03:38:03.278Z,34.13
2022-11-16T03:40:32.380Z,31.50
2022-11-16T03:43:00.225Z,35.77
2022-11-16T03:45:26.736Z,34.40
2022-11-16T03:47:53.906Z,36.10
2022-11-16T03:50:20.380Z,33.40
2022-11-16T03:52:46.791Z,34.43
2022-11-16T03:55:13.612Z,38.53
2022-11-16T03:57:40.067Z,37.30
2022-11-16T04:00:07.371Z,38.93
2022-11-16T04:02:34.190Z,34.27
2022-11-16T04:05:19.436Z,37.50
2022-11-16T04:08:06.539Z,36.93
2022-11-16T04:10:51.456Z,34.90
2022-11-16T04:13:40.097Z,34.53
2022-11-16T04:16:27.776Z,37.27
2022-11-16T04:19:13.929Z,38.73
2022-11-16T04:22:01.995Z,35.80
2022-11-16T04:24:31.167Z,44.10
2022-11-16T04:27:18.600Z,36.67
2022-11-16T04:29:45.210Z,40.63
2022-11-16T04:32:30.669Z,40.60
2022-11-16T04:35:16.257Z,37.17
2022-11-16T04:37:48.811Z,47.70
2022-11-16T04:40:16.506Z,44.03
2022-11-16T04:42:43.377Z,44.30
2022-11-16T04:45:28.861Z,41.60
2022-11-16T04:47:55.543Z,45.10
2022-11-16T04:50:22.125Z,46.77
2022-11-16T04:52:48.726Z,41.63
2022-11-16T04:55:15.573Z,45.33
2022-11-16T04:57:42.004Z,43.97
2022-11-16T05:00:09.220Z,44.20
2022-11-16T05:02:35.837Z,48.53
2022-11-16T05:05:02.331Z,52.93
2022-11-16T05:07:28.832Z,51.63
2022-11-16T05:09:55.538Z,49.17
2022-11-16T05:12:23.730Z,47.20
2022-11-16T05:14:50.174Z,49.83
2022-11-16T05:17:18.228Z,51.80
2022-11-16T05:20:03.367Z,55.50
2022-11-16T05:22:30.103Z,51.37
2022-11-16T05:24:56.679Z,55.13
2022-11-16T05:27:24.418Z,45.30
2022-11-16T05:29:51.531Z,50.83
2022-11-16T05:32:19.236Z,46.73
2022-11-16T05:34:46.635Z,53.00
2022-11-16T05:37:13.390Z,43.83
2022-11-16T05:39:40.186Z,54.57
2022-11-16T05:42:07.583Z,49.93
2022-11-16T05:44:34.331Z,47.93
2022-11-16T05:47:01.131Z,49.80
2022-11-16T05:49:27.637Z,52.03
2022-11-16T05:51:55.142Z,52.57
2022-11-16T05:54:24.918Z,51.93
2022-11-16T05:56:51.930Z,55.60
2022-11-16T05:59:19.776Z,56.87
2022-11-16T06:01:46.783Z,53.90
2022-11-16T06:04:13.550Z,47.27
2022-11-16T06:06:40.384Z,51.63
2022-11-16T06:09:07.603Z,52.67
2022-11-16T06:11:36.009Z,56.27
2022-11-16T06:14:03.114Z,54.33
2022-11-16T06:16:29.620Z,50.60
2022-11-16T06:18:56.310Z,50.90
2022-11-16T06:21:23.076Z,50.40
2022-11-16T06:23:49.496Z,52.77
2022-11-16T06:26:16.135Z,47.37
2022-11-16T06:28:42.639Z,46.63
2022-11-16T06:31:09.212Z,47.83
2022-11-16T06:33:35.837Z,50.73
2022-11-16T06:36:02.395Z,54.00
2022-11-16T06:38:29.094Z,46.07
2022-11-16T06:40:57.292Z,53.80
2022-11-16T06:43:25.213Z,49.97
2022-11-16T06:45:55.291Z,44.83
2022-11-16T06:48:22.340Z,47.63
2022-11-16T06:50:52.242Z,45.07
2022-11-16T06:53:19.151Z,44.47
2022-11-16T06:55:45.685Z,43.83
2022-11-16T06:58:12.128Z,43.73
2022-11-16T07:00:38.703Z,45.90
2022-11-16T07:03:05.300Z,42.63
2022-11-16T07:05:32.283Z,41.63
2022-11-16T07:07:59.134Z,37.43
2022-11-16T07:10:26.026Z,39.27
2022-11-16T07:12:52.796Z,43.40
2022-11-16T07:15:19.582Z,42.90
2022-11-16T07:17:46.231Z,48.87
2022-11-16T07:20:12.839Z,52.00
2022-11-16T07:22:40.017Z,46.83
2022-11-16T07:25:07.108Z,44.23
2022-11-16T07:27:33.627Z,42.53
2022-11-16T07:30:02.282Z,47.07
2022-11-16T07:32:30.944Z,47.03
2022-11-16T07:35:05.037Z,45.07
2022-11-16T07:37:31.803Z,45.10
2022-11-16T07:39:58.431Z,45.80
2022-11-16T07:42:24.923Z,48.10
2022-11-16T07:44:51.454Z,52.13
2022-11-16T07:47:18.042Z,54.73
2022-11-16T07:49:44.568Z,48.47
2022-11-16T07:52:11.131Z,51.30
2022-11-16T07:54:37.582Z,65.20
2022-11-16T07:57:04.328Z,55.60
2022-11-16T07:59:30.925Z,51.47
2022-11-16T08:01:59.150Z,55.67
2022-11-16T08:04:26.030Z,57.20
2022-11-16T08:06:52.953Z,53.77
2022-11-16T08:09:19.743Z,57.00
2022-11-16T08:11:47.197Z,55.97
2022-11-16T08:14:14.161Z,57.13
2022-11-16T08:16:40.901Z,54.67
2022-11-16T08:19:07.444Z,52.90
2022-11-16T08:21:33.898Z,58.30
2022-11-16T08:24:00.387Z,54.50
2022-11-16T08:26:27.598Z,56.57
2022-11-16T08:28:57.211Z,52.03
2022-11-16T08:31:26.792Z,47.03
2022-11-16T08:33:54.029Z,45.97
2022-11-16T08:36:22.349Z,45.60
2022-11-16T08:38:50.304Z,47.27
2022-11-16T08:41:17.456Z,43.53
2022-11-16T08:43:46.584Z,44.40
2022-11-16T08:46:13.753Z,37.17
2022-11-16T08:48:40.525Z,33.83
2022-11-16T08:51:17.424Z,42.13
2022-11-16T08:53:45.228Z,33.27
2022-11-16T08:56:13.297Z,35.30
2022-11-16T08:58:47.397Z,34.03
2022-11-16T09:01:17.084Z,29.90
2022-11-16T09:03:44.076Z,31.57
2022-11-16T09:06:11.152Z,29.23
2022-11-16T09:08:39.082Z,27.53
2022-11-16T09:11:11.072Z,27.77
2022-11-16T09:13:37.711Z,24.00
2022-11-16T09:16:04.846Z,26.97
2022-11-16T09:18:32.003Z,24.30
2022-11-16T09:20:59.014Z,28.23
2022-11-16T09:23:25.919Z,22.27
2022-11-16T09:25:53.754Z,22.37
2022-11-16T09:28:21.960Z,22.77
2022-11-16T09:30:51.158Z,26.13
2022-11-16T09:33:18.024Z,23.87
2022-11-16T09:35:44.644Z,19.90
2022-11-16T09:38:16.024Z,23.13
2022-11-16T09:40:47.354Z,19.90
2022-11-16T09:43:29.879Z,20.33
2022-11-16T09:46:11.564Z,24.93
2022-11-16T09:48:38.986Z,21.00
2022-11-16T09:51:09.040Z,21.27
2022-11-16T09:53:42.591Z,19.20
2022-11-16T09:56:16.470Z,17.20
2022-11-16T09:59:17.963Z,18.73
2022-11-16T10:01:58.553Z,18.77
2022-11-16T10:04:38.629Z,17.50
2022-11-16T10:07:21.040Z,16.40
2022-11-16T10:09:47.862Z,17.37
2022-11-16T10:12:38.173Z,17.20
2022-11-16T10:15:52.911Z,20.07
2022-11-16T10:18:34.496Z,17.63
2022-11-16T10:21:20.409Z,18.10
2022-11-16T10:24:08.346Z,18.13
2022-11-16T10:26:42.160Z,18.00
2022-11-16T10:29:39.991Z,17.47
2022-11-16T10:32:22.074Z,16.60
2022-11-16T10:35:03.328Z,16.00
2022-11-16T10:37:31.863Z,15.47
2022-11-16T10:39:58.818Z,18.53
2022-11-16T10:42:33.550Z,16.43
2022-11-16T10:45:15.343Z,16.27
2022-11-16T10:47:47.176Z,12.83
2022-11-16T10:50:35.017Z,15.67
2022-11-16T10:53:02.002Z,15.17
2022-11-16T10:55:28.957Z,13.77
2022-11-16T10:58:06.045Z,12.33
2022-11-16T11:01:01.942Z,16.07
2022-11-16T11:03:32.539Z,11.93
2022-11-16T11:05:59.964Z,12.00
2022-11-16T11:08:30.720Z,11.13
2022-11-16T11:11:25.094Z,12.10
2022-11-16T11:14:24.059Z,11.63
2022-11-16T11:16:54.355Z,11.40
2022-11-16T11:19:24.809Z,11.90
2022-11-16T11:21:59.132Z,10.43
2022-11-16T11:27:13.220Z,10.70
2022-11-16T11:29:41.573Z,11.70
2022-11-16T11:32:16.872Z,10.87
2022-11-16T11:34:48.687Z,10.43
2022-11-16T11:37:22.346Z,8.67
2022-11-16T11:39:48.871Z,8.77
2022-11-16T11:42:15.261Z,8.97
2022-11-16T11:44:51.929Z,7.83
2022-11-16T11:47:56.169Z,8.27
2022-11-16T11:50:19.725Z,6.37
2022-11-16T11:52:57.174Z,6.23
2022-11-16T11:55:23.753Z,7.80
2022-11-16T11:57:55.997Z,7.60
2022-11-16T12:00:23.756Z,9.53
2022-11-16T12:03:16.948Z,7.70
2022-11-16T12:05:52.115Z,6.70
2022-11-16T12:08:34.957Z,6.00
2022-11-16T12:11:12.486Z,7.27
2022-11-16T12:13:55.169Z,6.00
2022-11-16T12:16:47.890Z,6.03
2022-11-16T12:19:40.999Z,8.80
2022-11-16T12:22:29.344Z,5.03
2022-11-16T12:25:22.877Z,5.50
2022-11-16T12:28:08.430Z,10.57
2022-11-16T12:30:45.254Z,5.50
2022-11-16T12:33:31.200Z,5.43
2022-11-16T12:36:35.209Z,4.40
2022-11-16T12:39:21.865Z,3.07
2022-11-16T12:41:57.860Z,7.27
2022-11-16T12:44:57.578Z,6.03
2022-11-16T12:47:42.919Z,4.63
2022-11-16T12:50:40.676Z,6.50
2022-11-16T12:53:21.920Z,4.90
2022-11-16T12:55:57.860Z,7.77
2022-11-16T12:58:39.009Z,5.57
2022-11-16T13:01:22.326Z,7.07
2022-11-16T13:03:58.309Z,5.33
2022-11-16T13:06:42.249Z,4.07
2022-11-16T13:09:15.727Z,7.20
2022-11-16T13:11:44.617Z,9.57
2022-11-16T13:14:15.870Z,6.80
2022-11-16T13:16:42.555Z,7.23
2022-11-16T13:19:13.075Z,5.97
2022-11-16T13:21:59.876Z,7.87
2022-11-16T13:24:51.116Z,11.90
2022-11-16T13:27:38.887Z,10.63
2022-11-16T13:30:21.650Z,9.17
2022-11-16T13:33:18.074Z,12.10
2022-11-16T13:35:44.717Z,12.90
2022-11-16T13:38:13.325Z,16.50
2022-11-16T13:40:40.659Z,12.43
2022-11-16T13:43:10.130Z,17.07
2022-11-16T13:45:50.842Z,17.77
2022-11-16T13:48:19.482Z,22.40
2022-11-16T13:50:55.499Z,14.63
2022-11-16T13:56:47.063Z,14.07
2022-11-16T13:59:15.365Z,14.07
2022-11-16T14:02:03.456Z,17.63
2022-11-16T14:04:55.980Z,12.73
2022-11-16T14:07:50.201Z,13.13
2022-11-16T14:10:48.890Z,12.97
2022-11-16T14:13:40.155Z,11.10
2022-11-16T14:16:32.257Z,13.60
2022-11-16T14:19:00.726Z,10.90
2022-11-16T14:21:49.786Z,11.30
2022-11-16T14:24:34.678Z,11.20
2022-11-16T14:27:20.352Z,12.33
2022-11-16T14:30:16.080Z,13.60
2022-11-16T14:32:47.666Z,11.53
2022-11-16T14:35:35.028Z,10.63
2022-11-16T14:38:06.881Z,13.13
2022-11-16T14:40:43.372Z,15.50
2022-11-16T14:43:17.668Z,12.27
2022-11-16T14:45:48.302Z,9.97
2022-11-16T14:48:17.190Z,8.40
2022-11-16T14:50:46.742Z,7.90
2022-11-16T14:53:16.715Z,7.53
2022-11-16T14:55:44.978Z,7.63
2022-11-16T14:58:14.325Z,14.07
2022-11-16T15:00:40.974Z,8.60
2022-11-16T15:03:10.943Z,8.27
2022-11-16T15:05:37.912Z,6.77
2022-11-16T15:08:14.002Z,7.13
2022-11-16T15:10:48.083Z,9.80
2022-11-16T15:13:22.988Z,10.13
2022-11-16T15:15:50.361Z,6.63
2022-11-16T15:18:19.018Z,6.93
2022-11-16T15:20:50.709Z,10.87
2022-11-16T15:23:18.026Z,12.60
2022-11-16T15:25:51.725Z,8.07
2022-11-16T15:28:26.642Z,7.53
2022-11-16T15:30:58.488Z,8.87
2022-11-16T15:33:33.825Z,11.43
2022-11-16T15:36:00.438Z,11.80
2022-11-16T15:38:28.488Z,9.97
2022-11-16T15:41:02.935Z,9.13
2022-11-16T15:43:45.183Z,11.50
2022-11-16T15:46:22.286Z,9.00
2022-11-16T15:48:49.007Z,11.30
2022-11-16T15:51:19.919Z,10.27
2022-11-16T15:53:48.384Z,10.67
2022-11-16T15:56:18.816Z,12.40
2022-11-16T15:58:45.893Z,14.60
2022-11-16T16:01:13.971Z,9.67
2022-11-16T16:03:59.116Z,10.20
2022-11-16T16:06:45.612Z,10.60
2022-11-16T16:09:25.081Z,9.43
2022-11-16T16:11:52.716Z,8.43
2022-11-16T16:14:29.901Z,11.30
2022-11-16T16:17:00.537Z,9.63
2022-11-16T16:19:29.554Z,9.70
2022-11-16T16:21:58.430Z,12.77
2022-11-16T16:24:43.269Z,10.70
2022-11-16T16:27:19.674Z,8.90
2022-11-16T16:29:47.396Z,9.47
2022-11-16T16:32:37.554Z,11.20
2022-11-16T16:35:07.179Z,10.07
2022-11-16T16:37:36.135Z,12.43
2022-11-16T16:40:03.635Z,9.50
2022-11-16T16:42:30.392Z,9.63
2022-11-16T16:44:59.190Z,9.53
2022-11-16T16:47:25.756Z,12.70
2022-11-16T16:49:52.274Z,10.47
2022-11-16T16:52:18.899Z,12.33
2022-11-16T16:54:45.646Z,10.73
2022-11-16T16:57:16.228Z,13.63
2022-11-16T16:59:45.304Z,10.97
2022-11-16T17:02:12.808Z,13.00
2022-11-16T17:04:39.827Z,10.47
2022-11-16T17:07:06.584Z,11.53
2022-11-16T17:09:33.086Z,11.00
2022-11-16T17:12:00.547Z,11.33
2022-11-16T17:14:27.118Z,11.30
2022-11-16T17:16:53.691Z,8.60
2022-11-16T17:19:21.041Z,8.53
2022-11-16T17:21:47.631Z,9.87
2022-11-16T17:24:14.027Z,11.33
2022-11-16T17:26:40.918Z,8.93
2022-11-16T17:29:07.482Z,6.83
2022-11-16T17:31:33.912Z,9.13
2022-11-16T17:34:00.646Z,9.37
2022-11-16T17:36:27.063Z,7.70
2022-11-16T17:38:54.273Z,11.63
2022-11-16T17:41:24.348Z,9.57
2022-11-16T17:43:52.980Z,10.10
2022-11-16T17:46:21.321Z,11.43
2022-11-16T17:48:48.398Z,9.90
2022-11-16T17:51:16.791Z,8.77
2022-11-16T17:53:46.358Z,8.17
2022-11-16T17:56:14.787Z,9.83
2022-11-16T17:58:41.704Z,8.83
2022-11-16T18:01:08.207Z,9.47
2022-11-16T18:03:38.574Z,9.30
2022-11-16T18:06:11.036Z,10.47
2022-11-16T18:08:39.628Z,9.50
2022-11-16T18:11:25.995Z,12.03
2022-11-16T18:14:00.633Z,10.13
2022-11-16T18:16:29.810Z,8.20
2022-11-16T18:19:01.111Z,9.73
2022-11-16T18:21:27.896Z,12.07
2022-11-16T18:23:55.794Z,9.57
2022-11-16T18:26:23.878Z,7.33
2022-11-16T18:28:51.307Z,7.80
2022-11-16T18:31:20.350Z,6.83
2022-11-16T18:33:49.007Z,8.60
2022-11-16T18:36:16.341Z,7.60
2022-11-16T18:38:42.798Z,8.30
2022-11-16T18:41:12.157Z,8.70
2022-11-16T18:43:50.323Z,9.63
2022-11-16T18:46:18.186Z,10.67
2022-11-16T18:48:46.772Z,11.33
2022-11-16T18:51:14.375Z,11.27
2022-11-16T18:53:42.801Z,11.93
2022-11-16T18:56:09.612Z,13.70
2022-11-16T18:58:49.797Z,8.83
2022-11-16T19:01:19.543Z,9.40
2022-11-16T19:03:46.283Z,11.60
2022-11-16T19:06:14.927Z,9.50
2022-11-16T19:08:42.371Z,9.27
2022-11-16T19:11:14.201Z,8.80
2022-11-16T19:13:42.134Z,10.77
2022-11-16T19:16:10.238Z,11.37
2022-11-16T19:18:37.429Z,8.80
2022-11-16T19:21:15.341Z,8.97
2022-11-16T19:23:44.683Z,7.40
2022-11-16T19:26:13.172Z,7.07
2022-11-16T19:28:42.771Z,12.17
2022-11-16T19:31:29.218Z,9.40
2022-11-16T19:34:05.492Z,8.57
2022-11-16T19:36:33.550Z,12.57
2022-11-16T19:39:00.205Z,11.00
2022-11-16T19:41:27.402Z,9.80
2022-11-16T19:43:58.390Z,15.70
2022-11-16T19:46:26.035Z,11.77
2022-11-16T19:48:55.901Z,10.57
2022-11-16T19:51:25.939Z,13.07
2022-11-16T19:53:52.682Z,10.27
2022-11-16T19:56:20.936Z,11.23
2022-11-16T19:58:47.696Z,11.10
2022-11-16T20:01:19.615Z,9.93
2022-11-16T20:03:47.085Z,19.63
2022-11-16T20:06:24.653Z,12.23
2022-11-16T20:08:54.181Z,14.60
2022-11-16T20:11:22.583Z,14.33
2022-11-16T20:13:50.164Z,12.97
2022-11-16T20:16:18.108Z,12.97
2022-11-16T20:18:45.165Z,15.13
2022-11-16T20:21:33.854Z,12.73
2022-11-16T20:24:06.445Z,14.33
2022-11-16T20:26:34.444Z,13.50
2022-11-16T20:29:01.169Z,14.77
2022-11-16T20:31:30.262Z,13.93
2022-11-16T20:34:01.993Z,16.73
2022-11-16T20:36:30.448Z,16.43
2022-11-16T20:38:57.756Z,17.40
2022-11-16T20:41:26.757Z,16.50
2022-11-16T20:43:55.981Z,15.60
2022-11-16T20:46:25.384Z,17.30
2022-11-16T20:48:52.161Z,14.70
2022-11-16T20:51:19.802Z,17.00
2022-11-16T20:53:47.762Z,14.37
2022-11-16T20:56:15.257Z,17.10
2022-11-16T20:58:41.731Z,19.43
2022-11-16T21:01:11.528Z,17.77
2022-11-16T21:03:38.841Z,16.90
2022-11-16T21:06:08.598Z,17.97
2022-11-16T21:08:36.350Z,16.20
2022-11-16T21:11:03.057Z,16.53
2022-11-16T21:13:49.763Z,17.13
2022-11-16T21:16:16.642Z,19.77
2022-11-16T21:18:43.240Z,19.60
2022-11-16T21:21:13.325Z,16.33
2022-11-16T21:23:43.203Z,15.70
2022-11-16T21:26:14.696Z,18.80
2022-11-16T21:28:44.591Z,17.27
2022-11-16T21:31:18.821Z,18.77
2022-11-16T21:33:45.714Z,16.37
2022-11-16T21:36:14.398Z,16.63
2022-11-16T21:38:41.297Z,16.67
2022-11-16T21:41:08.763Z,16.77
2022-11-16T21:43:40.227Z,15.13
2022-11-16T21:46:10.311Z,15.60
2022-11-16T21:48:36.994Z,14.53
2022-11-16T21:51:05.751Z,15.30
2022-11-16T21:53:32.935Z,15.13
2022-11-16T21:55:59.838Z,14.10
2022-11-16T21:58:26.415Z,14.63
2022-11-16T22:00:57.203Z,15.37
2022-11-16T22:03:24.567Z,15.67
2022-11-16T22:06:17.032Z,18.10
2022-11-16T22:08:44.032Z,15.90
2022-11-16T22:13:55.594Z,13.27
2022-11-16T22:16:24.830Z,14.90
2022-11-16T22:18:51.372Z,13.83
2022-11-16T22:21:18.166Z,12.23
2022-11-16T22:23:44.816Z,14.70
2022-11-16T22:26:14.739Z,14.57
2022-11-16T22:28:41.475Z,10.97
2022-11-16T22:31:11.368Z,13.70
2022-11-16T22:33:38.157Z,12.60
2022-11-16T22:36:05.456Z,9.63
2022-11-16T22:38:32.005Z,10.77
2022-11-16T22:40:58.690Z,9.97
2022-11-16T22:43:29.811Z,9.83
2022-11-16T22:46:04.665Z,9.10
2022-11-16T22:48:36.334Z,10.20
2022-11-16T22:51:22.502Z,10.07
2022-11-16T22:53:59.883Z,7.80
2022-11-16T22:56:26.912Z,7.80
2022-11-16T22:58:53.847Z,8.93
2022-11-16T23:01:20.673Z,9.43
2022-11-16T23:03:47.737Z,8.67
2022-11-16T23:06:14.602Z,6.23
2022-11-16T23:08:41.612Z,8.57
2022-11-16T23:11:30.182Z,8.30
2022-11-16T23:14:15.764Z,7.60
2022-11-16T23:16:42.750Z,11.17
2022-11-16T23:19:30.020Z,9.53
2022-11-16T23:22:15.820Z,8.10
2022-11-16T23:25:01.170Z,8.83
2022-11-16T23:27:39.109Z,9.57
2022-11-16T23:30:12.158Z,7.97
2022-11-16T23:32:39.488Z,8.50
2022-11-16T23:35:06.504Z,9.37
2022-11-16T23:37:33.094Z,9.77
2022-11-16T23:39:59.601Z,6.50
2022-11-16T23:42:44.909Z,7.37
2022-11-16T23:45:11.490Z,7.47
2022-11-16T23:47:37.974Z,6.13
2022-11-16T23:50:04.836Z,6.90
2022-11-16T23:52:31.324Z,5.27
2022-11-16T23:54:57.844Z,7.23
2022-11-16T23:57:24.422Z,6.60
2022-11-16T23:59:50.905Z,5.10
